Time;durP1;ratioP1;P1;durP2;ratioP2;P2;SDS_P1;SDS_P2;PMS_P1;PMS_P2;Temp;Humidity;BMP_temperature;BMP_pressure;BME280_temperature;BME280_humidity;BME280_pressure;Samples;Min_cycle;Max_cycle;Signal;HPM_P1;HPM_P2
2022/05/05 00:02:11;;;;;;;5.55;3.03;;;;;;;19.45;29.42;101501.63;5071793;28;20057;-71
2022/05/05 00:04:38;;;;;;;5.70;3.35;;;;;;;19.45;29.11;101507.13;5071618;28;20378;-71
2022/05/05 00:07:05;;;;;;;5.93;3.20;;;;;;;19.46;29.58;101508.88;5071730;28;20050;-71
2022/05/05 00:09:32;;;;;;;5.43;2.95;;;;;;;19.47;29.53;101507.00;5088553;28;20052;-71
2022/05/05 00:14:44;;;;;;;4.97;2.90;;;;;;;19.46;29.29;101497.84;5072660;28;20041;-71
2022/05/05 00:17:11;;;;;;;4.68;2.83;;;;;;;19.50;29.47;101501.25;5086740;28;20102;-71
2022/05/05 00:19:41;;;;;;;5.35;3.00;;;;;;;19.51;29.61;101495.59;5088034;28;20052;-71
2022/05/05 00:22:10;;;;;;;5.70;3.15;;;;;;;19.52;29.67;101497.31;5087180;28;20044;-71
2022/05/05 00:24:38;;;;;;;4.95;2.72;;;;;;;19.53;29.48;101498.19;5087956;28;20056;-71
2022/05/05 00:27:09;;;;;;;6.72;3.05;;;;;;;19.55;29.51;101501.66;5071857;28;20051;-71
2022/05/05 00:29:36;;;;;;;7.00;3.22;;;;;;;19.54;29.39;101494.41;5072294;28;20310;-71
2022/05/05 00:32:03;;;;;;;5.53;3.20;;;;;;;19.54;29.48;101503.53;5069585;28;20159;-71
2022/05/05 00:34:29;;;;;;;5.53;2.85;;;;;;;19.54;29.19;101495.28;5087752;28;20052;-71
2022/05/05 00:36:56;;;;;;;5.07;2.90;;;;;;;19.53;29.63;101492.66;5086124;28;20103;-71
2022/05/05 00:39:23;;;;;;;5.88;2.90;;;;;;;19.53;29.54;101498.19;5071264;28;20044;-71
2022/05/05 00:41:50;;;;;;;4.93;2.97;;;;;;;19.53;29.74;101499.03;5069596;28;20048;-71
2022/05/05 00:44:17;;;;;;;5.75;2.90;;;;;;;19.51;29.62;101501.09;5088043;28;20053;-71
2022/05/05 00:46:49;;;;;;;6.43;3.13;;;;;;;19.54;29.96;101499.91;5086115;28;20098;-71
2022/05/05 00:49:17;;;;;;;6.15;3.00;;;;;;;19.50;29.62;101501.25;5087014;28;20045;-72
2022/05/05 00:51:43;;;;;;;5.90;3.00;;;;;;;19.48;29.82;101501.38;5086335;28;20456;-71
2022/05/05 00:54:10;;;;;;;4.72;2.75;;;;;;;19.47;29.35;101501.47;5087656;28;20044;-71
2022/05/05 00:56:38;;;;;;;7.63;3.20;;;;;;;19.45;29.74;101498.88;5085651;28;20449;-71
2022/05/05 00:59:05;;;;;;;4.03;2.63;;;;;;;19.41;29.50;101494.69;5087284;28;20044;-70
2022/05/05 01:01:33;;;;;;;4.57;2.75;;;;;;;19.42;29.96;101492.78;5069439;28;20052;-71
2022/05/05 01:04:00;;;;;;;6.55;3.10;;;;;;;19.39;29.60;101492.06;5087090;28;20052;-71
2022/05/05 01:06:28;;;;;;;4.38;2.80;;;;;;;19.38;29.80;101492.19;5086217;28;20044;-71
2022/05/05 01:08:55;;;;;;;4.18;2.72;;;;;;;19.36;29.77;101491.47;5071120;28;20052;-71
2022/05/05 01:11:21;;;;;;;5.10;2.63;;;;;;;19.35;29.64;101489.75;5086318;28;20520;-71
2022/05/05 01:13:48;;;;;;;5.53;3.13;;;;;;;19.34;30.00;101497.16;5087073;28;20448;-72
2022/05/05 01:16:15;;;;;;;7.00;3.15;;;;;;;19.33;30.12;101498.16;5086309;28;20635;-71
2022/05/05 01:18:42;;;;;;;5.05;2.88;;;;;;;19.32;30.07;101501.91;5069773;28;20048;-70
2022/05/05 01:21:10;;;;;;;5.10;2.80;;;;;;;19.32;29.75;101499.16;5086298;28;20048;-71
2022/05/05 01:23:38;;;;;;;6.28;3.15;;;;;;;19.32;30.03;101501.91;5086503;28;20555;-71
2022/05/05 01:28:54;;;;;;;4.97;2.60;;;;;;;19.30;30.19;101501.19;5071363;28;20044;-70
2022/05/05 01:31:20;;;;;;;6.68;3.10;;;;;;;19.30;30.16;101492.03;5086124;28;20445;-72
2022/05/05 01:33:47;;;;;;;5.50;2.67;;;;;;;19.30;30.19;101500.31;5086497;28;20095;-70
2022/05/05 01:36:14;;;;;;;5.22;2.90;;;;;;;19.30;30.21;101505.81;5069124;28;20548;-71
2022/05/05 01:38:43;;;;;;;4.95;2.50;;;;;;;19.29;30.20;101498.56;5086665;28;20056;-71
2022/05/05 01:41:12;;;;;;;4.82;2.67;;;;;;;19.30;29.73;101501.19;5085302;28;20088;-71
2022/05/05 01:43:41;;;;;;;5.10;2.65;;;;;;;19.30;30.36;101498.44;5085997;28;20048;-71
2022/05/05 01:46:09;;;;;;;6.05;2.72;;;;;;;19.31;29.97;101504.81;5085767;28;20052;-70
2022/05/05 01:48:35;;;;;;;5.22;2.42;;;;;;;19.30;30.42;101501.19;5086242;28;20095;-70
2022/05/05 01:51:04;;;;;;;4.07;2.83;;;;;;;19.33;30.13;101508.28;5086422;28;20052;-71
2022/05/05 01:53:37;;;;;;;5.60;2.92;;;;;;;19.33;29.93;101516.56;5085353;28;20414;-70
2022/05/05 01:56:11;;;;;;;4.00;2.55;;;;;;;19.34;30.37;101516.41;5085385;28;20390;-70
2022/05/05 01:58:41;;;;;;;8.05;2.67;;;;;;;19.34;30.05;101518.31;5068723;28;20049;-70
2022/05/05 02:01:10;;;;;;;4.53;2.88;;;;;;;19.34;29.93;101519.16;5084826;28;20067;-70
2022/05/05 02:03:37;;;;;;;5.68;2.70;;;;;;;19.34;30.11;101521.06;5069688;28;20060;-70
2022/05/05 02:06:05;;;;;;;4.60;2.60;;;;;;;19.36;30.17;101527.25;5069233;28;20057;-70
2022/05/05 02:08:32;;;;;;;5.30;2.50;;;;;;;19.34;30.00;101524.69;5085010;28;20500;-70
2022/05/05 02:10:59;;;;;;;4.32;2.58;;;;;;;19.34;30.15;101527.44;5069103;28;20468;-69
2022/05/05 02:13:26;;;;;;;4.97;2.50;;;;;;;19.33;30.38;101525.69;5084909;28;20049;-70
2022/05/05 02:15:52;;;;;;;5.65;3.00;;;;;;;19.34;30.17;101529.31;5085902;28;20421;-70
2022/05/05 02:18:19;;;;;;;5.78;2.60;;;;;;;19.32;30.58;101529.44;5084373;28;20521;-70
2022/05/05 02:20:46;;;;;;;5.45;2.60;;;;;;;19.32;30.14;101531.34;5085601;28;20045;-70
2022/05/05 02:23:12;;;;;;;5.18;2.47;;;;;;;19.31;30.45;101529.59;5084534;28;20058;-70
2022/05/05 02:25:39;;;;;;;5.70;2.80;;;;;;;19.30;30.07;101533.34;5085956;28;20386;-69
2022/05/05 02:28:06;;;;;;;6.07;2.72;;;;;;;19.29;30.36;101531.59;5084341;28;20048;-69
2022/05/05 02:30:42;;;;;;;4.80;2.53;;;;;;;19.30;30.85;101533.34;5085727;28;20409;-70
2022/05/05 02:33:08;;;;;;;4.28;2.50;;;;;;;19.24;30.02;101529.28;5067689;28;20508;-71
2022/05/05 02:35:35;;;;;;;5.68;2.63;;;;;;;19.24;30.50;101531.19;5085779;28;20057;-70
2022/05/05 02:40:47;;;;;;;6.47;2.60;;;;;;;19.19;30.42;101525.22;5069709;28;20052;-70
2022/05/05 02:43:14;;;;;;;4.57;2.47;;;;;;;19.18;29.93;101529.00;5084104;28;20053;-69
2022/05/05 02:45:40;;;;;;;3.70;2.50;;;;;;;19.16;30.41;101528.25;5069434;28;20456;-71
2022/05/05 02:48:08;;;;;;;4.60;2.70;;;;;;;19.13;30.26;101521.16;5067555;28;20048;-70
2022/05/05 02:50:34;;;;;;;5.30;2.80;;;;;;;19.12;30.05;101521.28;5085531;28;20053;-70
2022/05/05 02:54:47;;;;;;;4.93;2.92;;;;;;;19.08;30.02;101520.72;5068341;28;20059;-71
2022/05/05 02:55:53;;;;;;;4.93;3.25;;;;;;;19.06;30.06;101519.97;5068703;28;20122;-71
2022/05/05 02:58:20;;;;;;;4.25;2.70;;;;;;;19.07;29.87;101515.34;5068225;28;20494;-71
2022/05/05 03:00:47;;;;;;;5.22;2.55;;;;;;;19.05;30.20;101522.84;5085262;28;20489;-70
2022/05/05 03:03:14;;;;;;;6.40;2.75;;;;;;;19.02;30.21;101523.16;5084149;28;20049;-71
2022/05/05 03:05:40;;;;;;;4.22;2.33;;;;;;;19.02;30.16;101527.63;5085192;28;20049;-71
2022/05/05 03:08:07;;;;;;;5.57;2.97;;;;;;;19.00;30.30;101528.81;5084026;28;20075;-70
2022/05/05 03:10:34;;;;;;;4.75;2.80;;;;;;;18.98;30.26;101523.44;5068285;28;20084;-71
2022/05/05 03:13:00;;;;;;;5.07;2.85;;;;;;;18.99;30.58;101529.81;5067159;28;20118;-71
2022/05/05 03:15:27;;;;;;;4.93;2.90;;;;;;;18.98;30.67;101533.56;5070752;28;20636;-71
2022/05/05 03:17:54;;;;;;;6.65;2.63;;;;;;;18.98;30.78;101531.69;5088364;28;20481;-71
2022/05/05 03:20:20;;;;;;;3.83;2.40;;;;;;;18.99;31.15;101532.56;5089421;28;20091;-71
2022/05/05 03:22:47;;;;;;;6.03;3.03;;;;;;;19.00;30.92;101531.56;5088176;28;20051;-71
2022/05/05 03:25:14;;;;;;;6.22;2.80;;;;;;;19.00;30.90;101535.19;5072665;28;20048;-71
2022/05/05 03:27:41;;;;;;;4.43;2.80;;;;;;;19.01;30.91;101533.28;5087816;28;20076;-70
2022/05/05 03:30:08;;;;;;;6.35;2.78;;;;;;;19.02;30.88;101537.78;5088773;28;20044;-70
2022/05/05 03:32:35;;;;;;;5.22;2.83;;;;;;;19.02;31.18;101537.78;5071129;28;20466;-70
2022/05/05 03:35:02;;;;;;;5.80;3.33;;;;;;;19.04;31.27;101544.00;5072040;28;20044;-71
2022/05/05 03:37:30;;;;;;;7.00;2.85;;;;;;;19.03;31.28;101545.00;5072034;28;20056;-70
2022/05/05 03:39:57;;;;;;;5.78;2.80;;;;;;;19.04;31.24;101552.25;5088992;28;20044;-72
2022/05/05 03:42:24;;;;;;;4.53;2.80;;;;;;;19.05;31.62;101543.00;5087673;28;20135;-70
2022/05/05 03:44:50;;;;;;;4.80;2.80;;;;;;;19.07;31.57;101548.38;5088416;28;20044;-71
2022/05/05 03:47:17;;;;;;;6.07;3.03;;;;;;;19.08;31.53;101545.47;5087206;28;20052;-71
2022/05/05 03:49:43;;;;;;;6.70;2.92;;;;;;;19.08;31.45;101558.38;5088381;28;20110;-71
2022/05/05 03:52:10;;;;;;;5.97;3.17;;;;;;;19.08;31.95;101551.00;5070884;28;20102;-72
2022/05/05 03:54:37;;;;;;;4.28;2.88;;;;;;;19.08;31.88;101548.22;5071684;28;20099;-71
2022/05/05 03:57:04;;;;;;;5.13;3.00;;;;;;;19.09;31.73;101549.97;5086987;28;20072;-72
2022/05/05 03:59:30;;;;;;;6.28;3.28;;;;;;;19.09;31.95;101549.97;5073396;28;20052;-71
2022/05/05 04:01:57;;;;;;;6.28;3.45;;;;;;;19.08;32.39;101553.75;5087052;28;20095;-71
2022/05/05 04:04:25;;;;;;;6.43;3.38;;;;;;;19.08;32.34;101559.25;5071124;28;20103;-73
2022/05/05 04:06:52;;;;;;;5.15;3.30;;;;;;;19.08;32.05;101553.75;5070176;28;20497;-72
2022/05/05 04:09:20;;;;;;;5.30;3.28;;;;;;;19.08;32.18;101558.38;5071660;28;20053;-71
2022/05/05 04:11:46;;;;;;;6.32;3.67;;;;;;;19.07;32.12;101563.00;5087173;28;20071;-72
2022/05/05 04:14:13;;;;;;;4.40;2.90;;;;;;;19.06;32.17;101558.50;5071572;28;20052;-71
2022/05/05 04:16:41;;;;;;;5.80;3.13;;;;;;;19.06;32.07;101563.13;5087170;28;20052;-71
2022/05/05 04:19:07;;;;;;;6.60;3.30;;;;;;;19.06;32.60;101569.50;5088233;28;20414;-71
2022/05/05 04:21:34;;;;;;;5.70;3.30;;;;;;;19.05;32.45;101573.28;5086758;28;20048;-71
2022/05/05 04:24:01;;;;;;;5.78;3.38;;;;;;;19.04;32.60;101574.28;5087776;28;20107;-71
2022/05/05 04:26:28;;;;;;;5.28;3.30;;;;;;;19.03;32.57;101580.78;5069557;28;20048;-70
2022/05/05 04:28:56;;;;;;;5.53;3.33;;;;;;;19.02;32.79;101579.09;5071324;28;20106;-71
2022/05/05 04:31:27;;;;;;;4.90;3.00;;;;;;;19.02;32.55;101581.84;5069934;28;20501;-71
2022/05/05 04:33:54;;;;;;;6.20;2.95;;;;;;;18.99;32.31;101571.97;5071366;28;20410;-71
2022/05/05 04:36:21;;;;;;;8.52;4.00;;;;;;;18.97;32.65;101576.72;5070611;28;20052;-71
2022/05/05 04:38:48;;;;;;;4.60;3.10;;;;;;;18.95;32.87;101581.50;5071120;28;20056;-71
2022/05/05 04:41:14;;;;;;;6.22;3.38;;;;;;;18.94;32.84;101581.66;5069667;28;20049;-71
2022/05/05 04:43:41;;;;;;;5.32;3.60;;;;;;;18.92;32.82;101578.16;5070858;28;20052;-70
2022/05/05 04:46:09;;;;;;;6.97;3.83;;;;;;;18.88;33.14;101580.31;5069971;28;20095;-71
2022/05/05 04:48:36;;;;;;;6.35;3.47;;;;;;;18.85;33.07;101579.72;5071968;28;20074;-71
2022/05/05 04:51:02;;;;;;;6.80;3.67;;;;;;;18.82;33.02;101583.63;5071023;28;20718;-70
2022/05/05 04:53:29;;;;;;;5.32;3.47;;;;;;;18.79;33.04;101577.50;5070789;28;20563;-71
2022/05/05 04:55:56;;;;;;;5.35;3.65;;;;;;;18.76;32.88;101591.56;5069886;28;20044;-71
2022/05/05 04:58:23;;;;;;;6.80;3.92;;;;;;;18.75;33.11;101589.81;5066806;28;20110;-71
2022/05/05 05:00:50;;;;;;;8.77;3.72;;;;;;;18.73;33.18;101587.19;5070782;28;20113;-71
2022/05/05 05:03:35;;;;;;;7.00;4.05;;;;;;;18.70;33.57;101584.69;5069102;28;20493;-71
2022/05/05 05:06:04;;;;;;;5.50;3.40;;;;;;;18.69;33.05;101605.00;5054315;28;20056;-71
2022/05/05 05:08:31;;;;;;;7.53;3.75;;;;;;;18.67;33.26;101600.63;5053143;28;20056;-71
2022/05/05 05:10:57;;;;;;;6.03;3.42;;;;;;;18.66;33.14;101604.38;5053739;28;20055;-71
2022/05/05 05:13:25;;;;;;;5.82;4.22;;;;;;;18.65;33.59;101613.63;5052991;28;20048;-71
2022/05/05 05:15:54;;;;;;;10.75;4.13;;;;;;;18.64;33.44;101610.03;5053326;28;20102;-71
2022/05/05 05:18:21;;;;;;;7.53;4.25;;;;;;;18.62;33.14;101610.16;5052549;28;20086;-70
2022/05/05 05:20:48;;;;;;;6.20;3.90;;;;;;;18.62;33.50;101612.03;5053291;28;20053;-71
2022/05/05 05:23:17;;;;;;;7.45;3.83;;;;;;;18.62;33.39;101620.28;5052503;28;20094;-70
2022/05/05 05:25:44;;;;;;;7.68;4.20;;;;;;;18.62;33.39;101612.91;5053673;28;20565;-70
2022/05/05 05:28:13;;;;;;;6.75;3.92;;;;;;;18.65;33.33;101616.38;5052251;28;20071;-71
2022/05/05 05:30:40;;;;;;;6.40;3.85;;;;;;;18.66;33.23;101626.38;5069922;28;20494;-72
2022/05/05 05:33:07;;;;;;;7.65;3.75;;;;;;;18.67;33.83;101629.00;5068954;28;20058;-71
2022/05/05 05:35:34;;;;;;;8.00;3.92;;;;;;;18.68;33.69;101629.88;5069875;28;20052;-70
2022/05/05 05:38:02;;;;;;;5.40;3.60;;;;;;;18.71;33.41;101629.59;5051705;28;20098;-71
2022/05/05 05:40:29;;;;;;;6.70;3.55;;;;;;;18.72;33.67;101632.22;5053489;28;20051;-71
2022/05/05 05:42:55;;;;;;;5.93;3.63;;;;;;;18.74;33.67;101638.47;5060591;28;20078;-71
2022/05/05 05:45:22;;;;;;;7.90;3.78;;;;;;;18.77;33.53;101646.44;5069886;28;20057;-71
2022/05/05 05:47:49;;;;;;;6.97;3.90;;;;;;;18.79;33.66;101644.41;5068475;28;20059;-71
2022/05/05 05:50:16;;;;;;;6.15;3.85;;;;;;;18.82;33.86;101646.91;5089557;28;20052;-71
2022/05/05 05:52:43;;;;;;;5.95;3.33;;;;;;;18.86;33.94;101650.28;5088693;28;20059;-74
2022/05/05 05:55:09;;;;;;;8.30;4.00;;;;;;;18.89;34.00;101645.34;5089461;28;20079;-70
2022/05/05 05:57:36;;;;;;;8.32;4.05;;;;;;;18.94;33.61;101647.69;5087637;28;20052;-69
2022/05/05 06:00:04;;;;;;;7.07;4.10;;;;;;;19.00;33.43;101649.91;5069945;28;20060;-70
2022/05/05 06:05:19;;;;;;;7.22;3.80;;;;;;;19.09;33.56;101657.34;5070286;28;20052;-70
2022/05/05 06:07:48;;;;;;;7.43;4.10;;;;;;;19.17;33.63;101668.53;5068136;28;20064;-69
2022/05/05 06:10:19;;;;;;;6.28;3.88;;;;;;;19.23;33.58;101673.47;5057070;28;20049;-69
2022/05/05 06:12:46;;;;;;;6.18;4.00;;;;;;;19.25;33.21;101676.09;5048010;28;20089;-69
2022/05/05 06:15:13;;;;;;;6.10;3.92;;;;;;;19.29;33.32;101672.03;5032380;28;20422;-69
2022/05/05 06:17:40;;;;;;;9.73;4.45;;;;;;;19.32;33.16;101674.53;5048092;28;20410;-69
2022/05/05 06:20:08;;;;;;;8.30;4.35;;;;;;;19.35;33.50;101672.34;5049059;28;20315;-69
2022/05/05 06:22:35;;;;;;;8.25;4.40;;;;;;;19.39;33.08;101679.31;5064269;28;20498;-70
2022/05/05 06:25:02;;;;;;;8.32;4.65;;;;;;;19.41;33.33;101672.81;5049055;28;20053;-70
2022/05/05 06:27:29;;;;;;;7.20;4.20;;;;;;;19.43;33.33;101671.66;5047902;28;20409;-69
2022/05/05 06:29:55;;;;;;;7.10;4.18;;;;;;;19.47;33.11;101681.41;5046292;28;20083;-69
2022/05/05 06:32:22;;;;;;;8.05;4.25;;;;;;;19.50;32.98;101685.78;5063739;28;20434;-69
2022/05/05 06:34:49;;;;;;;7.13;4.22;;;;;;;19.52;33.15;101689.28;5065437;28;20511;-71
2022/05/05 06:37:16;;;;;;;8.48;4.70;;;;;;;19.55;33.35;101681.59;5048066;28;20053;-69
2022/05/05 06:39:42;;;;;;;8.65;5.00;;;;;;;19.59;33.38;101690.44;5065702;28;20041;-70
2022/05/05 06:42:09;;;;;;;7.53;4.65;;;;;;;19.62;33.18;101687.41;5047793;28;20071;-70
2022/05/05 06:44:36;;;;;;;7.50;4.22;;;;;;;19.63;33.30;101690.00;5072446;28;20106;-71
2022/05/05 06:47:04;;;;;;;5.93;3.92;;;;;;;19.66;32.94;101691.63;5068238;28;20629;-71
2022/05/05 06:49:31;;;;;;;7.95;4.60;;;;;;;19.66;33.29;101684.22;5068158;28;20165;-70
2022/05/05 06:51:58;;;;;;;6.80;4.63;;;;;;;19.69;33.03;101691.31;5067193;28;20083;-69
2022/05/05 06:54:30;;;;;;;7.55;4.28;;;;;;;19.70;33.15;101690.31;5069182;28;20118;-73
2022/05/05 06:56:57;;;;;;;6.45;4.20;;;;;;;19.76;33.20;101687.03;5067356;28;20048;-71
2022/05/05 06:59:24;;;;;;;7.50;4.20;;;;;;;19.81;33.29;101692.97;5068428;28;20044;-72
2022/05/05 07:01:54;;;;;;;7.30;3.92;;;;;;;19.85;33.28;101686.13;5067609;28;20048;-72
2022/05/05 07:07:16;;;;;;;8.35;4.93;;;;;;;20.02;33.50;101696.47;5068729;28;20049;-71
2022/05/05 07:12:31;;;;;;;7.97;4.68;;;;;;;20.26;33.35;101697.97;5088771;28;20056;-71
2022/05/05 07:14:59;;;;;;;7.47;4.53;;;;;;;20.38;33.32;101705.97;5089562;28;20110;-71
2022/05/05 07:17:26;;;;;;;7.90;4.70;;;;;;;20.51;33.23;101706.53;5087409;28;20501;-70
2022/05/05 07:19:53;;;;;;;7.38;4.70;;;;;;;20.63;32.73;101692.59;5085644;28;20056;-71
2022/05/05 07:22:20;;;;;;;8.77;5.30;;;;;;;20.76;32.62;101705.06;5067085;28;20074;-71
2022/05/05 07:24:47;;;;;;;10.23;5.35;;;;;;;20.87;32.64;101699.38;5051647;28;20045;-72
2022/05/05 07:27:14;;;;;;;8.18;4.95;;;;;;;20.98;31.89;101705.75;5050381;28;20049;-70
2022/05/05 07:29:41;;;;;;;9.13;5.05;;;;;;;21.10;31.98;101707.31;5068099;28;20071;-71
2022/05/05 07:32:09;;;;;;;9.30;4.68;;;;;;;21.20;31.63;101703.53;5050043;28;20048;-72
2022/05/05 07:34:36;;;;;;;6.97;4.70;;;;;;;21.29;31.51;101700.88;5068152;28;20053;-71
2022/05/05 07:37:03;;;;;;;9.43;4.80;;;;;;;21.37;31.59;101712.91;5098917;28;20500;-71
2022/05/05 07:39:30;;;;;;;9.23;4.80;;;;;;;21.46;31.35;101706.47;5069994;28;20056;-71
2022/05/05 07:41:57;;;;;;;6.85;4.20;;;;;;;21.53;31.02;101703.97;5067629;28;20048;-71
2022/05/05 07:44:23;;;;;;;9.35;4.50;;;;;;;21.61;30.70;101713.25;5051611;28;20468;-71
2022/05/05 07:46:50;;;;;;;8.77;4.53;;;;;;;21.69;30.60;101709.72;5055442;28;20303;-71
2022/05/05 07:49:17;;;;;;;8.60;4.88;;;;;;;21.77;30.52;101715.34;5067727;28;20123;-71
2022/05/05 07:51:44;;;;;;;8.13;3.92;;;;;;;21.87;30.33;101712.53;5067228;28;20344;-71
2022/05/05 07:56:58;;;;;;;8.13;4.03;;;;;;;22.06;30.11;101711.56;5047635;28;20049;-71
2022/05/05 07:59:24;;;;;;;8.73;4.53;;;;;;;22.15;29.99;101717.03;5064575;28;20053;-70
2022/05/05 08:01:51;;;;;;;8.82;3.78;;;;;;;22.25;29.84;101728.00;5068050;28;20472;-70
2022/05/05 08:04:18;;;;;;;6.30;3.50;;;;;;;22.34;30.03;101722.41;5071300;28;20106;-70
2022/05/05 08:06:45;;;;;;;7.82;4.00;;;;;;;22.46;29.50;101722.16;5071411;28;20040;-71
2022/05/05 08:09:11;;;;;;;6.95;3.75;;;;;;;22.56;29.49;101718.31;5071529;28;20079;-71
2022/05/05 08:11:38;;;;;;;7.30;4.07;;;;;;;22.67;29.41;101723.56;5086836;28;20094;-71
2022/05/05 08:14:05;;;;;;;8.35;3.97;;;;;;;22.80;28.94;101725.97;5081662;28;20060;-71
2022/05/05 08:16:33;;;;;;;7.90;3.78;;;;;;;22.93;28.56;101722.75;5066367;28;20049;-70
2022/05/05 08:19:00;;;;;;;6.47;3.70;;;;;;;23.05;28.61;101729.78;5066295;28;20051;-70
2022/05/05 08:21:27;;;;;;;6.40;3.67;;;;;;;23.15;28.76;101728.63;5087543;28;20049;-71
2022/05/05 08:28:28;;;;;;;9.13;4.03;;;;;;;23.27;28.21;101725.59;5071285;28;20071;-71
2022/05/05 08:29:26;;;;;;;6.88;4.00;;;;;;;23.44;27.68;101741.28;5052096;28;20107;-71
2022/05/05 08:31:53;;;;;;;7.18;4.43;;;;;;;23.54;28.07;101741.22;5068397;28;20324;-70
2022/05/05 08:34:20;;;;;;;6.65;4.10;;;;;;;23.62;27.71;101741.25;5070839;28;20140;-71
2022/05/05 08:36:46;;;;;;;7.85;4.38;;;;;;;23.71;27.94;101743.91;5067865;28;20048;-71
2022/05/05 08:39:18;;;;;;;7.13;4.63;;;;;;;23.79;27.81;101743.06;5052456;28;20080;-71
2022/05/05 08:41:46;;;;;;;8.35;4.25;;;;;;;23.91;26.97;101747.25;5051622;28;20044;-70
2022/05/05 08:44:13;;;;;;;7.25;4.38;;;;;;;23.97;27.32;101742.94;5070628;28;20250;-71
2022/05/05 08:46:40;;;;;;;8.27;3.83;;;;;;;24.06;26.83;101741.94;5089833;28;20055;-71
2022/05/05 08:49:08;;;;;;;7.72;4.63;;;;;;;24.13;26.88;101741.06;5090818;28;20048;-71
2022/05/05 08:51:43;;;;;;;7.28;4.32;;;;;;;24.24;26.45;101739.94;5089933;28;20048;-71
2022/05/05 08:54:16;;;;;;;6.10;3.60;;;;;;;24.29;26.99;101739.44;5090415;28;20105;-71
2022/05/05 08:56:48;;;;;;;7.65;3.75;;;;;;;24.35;26.81;101741.53;5091007;28;20493;-71
2022/05/05 08:59:18;;;;;;;9.05;4.88;;;;;;;24.43;26.69;101750.75;5090883;28;20052;-71
2022/05/05 09:01:45;;;;;;;9.15;4.88;;;;;;;24.48;25.89;101744.66;5049280;28;20506;-70
2022/05/05 09:04:12;;;;;;;8.13;4.78;;;;;;;24.53;25.92;101753.38;5067012;28;20130;-70
2022/05/05 09:06:44;;;;;;;8.55;4.97;;;;;;;24.57;25.20;101749.19;5073364;28;20115;-70
2022/05/05 09:09:34;;;;;;;9.07;4.93;;;;;;;24.53;25.14;101747.81;5086898;28;20080;-70
2022/05/05 09:12:17;;;;;;;7.15;4.10;;;;;;;24.59;25.56;101752.66;5069014;28;20045;-70
2022/05/05 09:14:46;;;;;;;8.02;4.68;;;;;;;24.61;25.78;101750.59;5070269;28;20110;-71
2022/05/05 09:17:15;;;;;;;8.23;4.80;;;;;;;24.67;25.67;101758.22;5068735;28;20067;-71
2022/05/05 09:19:45;;;;;;;7.65;5.07;;;;;;;24.74;25.51;101755.63;5070168;28;20517;-71
2022/05/05 09:22:13;;;;;;;10.27;5.50;;;;;;;24.79;25.23;101750.44;5083194;28;20047;-70
2022/05/05 09:24:45;;;;;;;8.95;5.50;;;;;;;24.83;24.49;101754.59;5089859;28;20219;-70
2022/05/05 09:27:29;;;;;;;9.00;5.50;;;;;;;24.84;24.59;101759.97;5089220;28;20484;-71
2022/05/05 09:30:01;;;;;;;7.72;4.90;;;;;;;24.87;24.86;101762.38;5089414;28;20044;-71
2022/05/05 09:32:31;;;;;;;9.95;5.40;;;;;;;24.87;24.88;101765.16;5079044;28;20525;-71
2022/05/05 09:35:07;;;;;;;9.73;5.55;;;;;;;24.94;24.11;101763.47;5053333;28;20436;-71
2022/05/05 09:37:35;;;;;;;9.38;5.65;;;;;;;24.93;24.58;101758.97;5051681;28;20044;-71
2022/05/05 09:40:03;;;;;;;8.30;4.60;;;;;;;25.00;24.97;101762.78;5052878;28;20056;-70
2022/05/05 09:42:37;;;;;;;7.38;4.30;;;;;;;25.05;24.84;101755.81;5069691;28;20056;-71
2022/05/05 09:45:16;;;;;;;7.43;4.15;;;;;;;25.11;24.36;101758.78;5053088;28;20060;-71
2022/05/05 09:47:54;;;;;;;10.13;5.07;;;;;;;25.15;24.84;101770.41;5081023;28;20048;-70
2022/05/05 09:50:23;;;;;;;7.88;4.47;;;;;;;25.20;24.69;101759.66;5053209;28;20044;-70
2022/05/05 09:58:26;;;;;;;6.70;4.70;;;;;;;25.36;24.49;101767.97;5069167;28;20047;-70
2022/05/05 10:01:05;;;;;;;9.25;4.82;;;;;;;25.40;24.20;101761.84;5086157;28;20070;-71
2022/05/05 10:06:39;;;;;;;8.88;5.22;;;;;;;25.53;24.40;101763.22;5069805;28;20453;-71
2022/05/05 10:09:13;;;;;;;10.43;5.20;;;;;;;25.59;24.46;101773.66;5085405;28;20045;-71
2022/05/05 10:11:41;;;;;;;8.30;4.90;;;;;;;25.67;24.72;101765.28;5068226;28;20052;-72
2022/05/05 10:14:10;;;;;;;9.18;4.72;;;;;;;25.75;24.69;101766.13;5062140;28;20055;-71
2022/05/05 10:16:38;;;;;;;8.05;4.70;;;;;;;25.86;24.45;101766.78;5074141;28;20048;-73
2022/05/05 10:19:08;;;;;;;7.80;4.93;;;;;;;25.94;24.34;101766.75;5064411;28;20683;-72
2022/05/05 10:21:59;;;;;;;9.25;5.22;;;;;;;26.08;23.70;101761.28;5085020;28;20098;-70
2022/05/05 10:24:31;;;;;;;9.18;5.22;;;;;;;26.14;23.89;101768.03;5067628;28;20056;-71
2022/05/05 10:27:03;;;;;;;6.65;4.68;;;;;;;26.24;23.66;101767.81;5067729;28;20672;-71
2022/05/05 10:29:37;;;;;;;;;;;;;;;25.96;23.84;101767.44;5069099;28;20052;-71
2022/05/05 10:32:25;;;;;;;10.75;5.18;;;;;;;26.26;23.16;101762.97;5064331;28;19925;-71
2022/05/05 10:35:02;;;;;;;10.85;5.35;;;;;;;26.29;23.00;101763.47;5048573;28;20469;-70
2022/05/05 10:37:36;;;;;;;9.82;5.53;;;;;;;26.27;22.49;101748.00;5047619;28;20490;-71
2022/05/05 10:40:07;;;;;;;8.02;5.30;;;;;;;26.22;22.88;101762.44;5051170;28;20099;-70
2022/05/05 10:42:51;;;;;;;10.07;5.30;;;;;;;26.13;22.76;101760.72;5066761;28;20143;-71
2022/05/05 10:45:29;;;;;;;7.88;5.00;;;;;;;26.07;22.81;101755.91;5069095;28;20049;-70
2022/05/05 10:47:58;;;;;;;9.95;5.75;;;;;;;25.98;22.80;101759.78;5053432;28;20068;-70
2022/05/05 10:50:28;;;;;;;10.77;6.18;;;;;;;25.94;22.50;101762.06;5064903;28;20095;-71
2022/05/05 10:52:55;;;;;;;8.30;5.85;;;;;;;25.84;23.11;101755.84;5063938;28;20052;-71
2022/05/05 10:55:24;;;;;;;9.52;5.28;;;;;;;25.78;23.20;101764.88;5065222;28;20056;-70
2022/05/05 10:58:52;;;;;;;9.07;6.03;;;;;;;25.66;22.94;101761.66;5060753;28;20095;-71
2022/05/05 11:01:18;;;;;;;10.77;6.05;;;;;;;25.58;22.64;101763.53;5064091;28;20100;-71
2022/05/05 11:04:28;;;;;;;7.85;5.22;;;;;;;25.55;22.84;101766.66;5048852;28;20084;-71
2022/05/05 11:07:20;;;;;;;7.88;4.88;;;;;;;25.48;22.96;101762.88;5064533;28;20542;-71
2022/05/05 11:09:46;;;;;;;8.45;5.60;;;;;;;25.45;23.38;101766.03;5063119;28;20048;-72
2022/05/05 11:12:20;;;;;;;7.05;5.05;;;;;;;25.45;23.16;101761.31;5050461;28;20056;-72
2022/05/05 11:23:40;;;;;;;10.35;5.90;;;;;;;25.39;23.40;101762.03;5068788;28;20048;-73
2022/05/05 11:26:09;;;;;;;8.63;5.45;;;;;;;25.37;23.23;101766.88;5051387;28;20477;-73
2022/05/05 11:28:36;;;;;;;8.38;5.28;;;;;;;25.39;23.80;101762.88;5051283;28;20497;-72
2022/05/05 11:31:03;;;;;;;8.70;5.00;;;;;;;25.44;23.96;101764.28;5068082;28;20062;-72
2022/05/05 11:33:30;;;;;;;9.20;4.88;;;;;;;25.48;23.88;101762.88;5067278;28;20044;-72
2022/05/05 11:35:59;;;;;;;7.13;4.75;;;;;;;25.54;23.84;101764.94;5052550;28;20098;-71
2022/05/05 11:38:28;;;;;;;8.52;5.53;;;;;;;25.60;23.81;101767.94;5054322;28;20521;-72
2022/05/05 11:41:00;;;;;;;8.82;5.72;;;;;;;25.70;24.00;101767.69;5055320;28;20059;-72
2022/05/05 11:46:14;;;;;;;8.60;4.93;;;;;;;25.80;23.69;101764.72;5072591;28;20064;-72
2022/05/05 11:48:51;;;;;;;9.77;5.47;;;;;;;25.89;23.58;101758.94;5054839;28;20497;-72
2022/05/05 11:51:26;;;;;;;7.63;5.07;;;;;;;25.95;23.35;101760.13;5070730;28;20048;-73
2022/05/05 11:53:59;;;;;;;9.20;5.30;;;;;;;26.02;23.31;101758.38;5072202;28;20094;-72
2022/05/05 11:56:28;;;;;;;8.70;4.65;;;;;;;26.05;23.38;101767.22;5070799;28;20491;-72
2022/05/05 12:01:41;;;;;;;8.93;5.07;;;;;;;26.14;23.56;101759.69;5071867;28;20053;-72
2022/05/05 12:04:10;;;;;;;12.68;5.68;;;;;;;26.21;23.35;101762.59;5088256;28;20461;-71
2022/05/05 12:06:38;;;;;;;8.35;5.07;;;;;;;26.24;23.14;101760.34;5087235;28;20122;-72
2022/05/05 12:09:07;;;;;;;11.05;5.30;;;;;;;26.27;22.96;101760.00;5088608;28;20063;-72
2022/05/05 12:11:35;;;;;;;9.70;5.25;;;;;;;26.29;22.65;101766.25;5087040;28;20055;-72
2022/05/05 12:14:06;;;;;;;8.52;4.97;;;;;;;26.33;22.88;101761.19;5088238;28;20053;-72
2022/05/05 12:16:35;;;;;;;9.15;5.93;;;;;;;26.34;22.48;101760.13;5070838;28;20048;-72
2022/05/05 12:19:13;;;;;;;6.78;4.72;;;;;;;26.36;22.83;101766.38;5087832;28;20478;-72